Time;durP1;ratioP1;P1;durP2;ratioP2;P2;SDS_P1;SDS_P2;PMS_P1;PMS_P2;Temp;Humidity;BMP_temperature;BMP_pressure;BME280_temperature;BME280_humidity;BME280_pressure;Samples;Min_cycle;Max_cycle;Signal;HPM_P1;HPM_P2
2022/12/01 00:01:06;;;;;;;5.53;4.28;;;7.40;99.90;;;;;;5041642;28;20048;-78
2022/12/01 00:03:33;;;;;;;5.75;4.13;;;7.50;99.90;;;;;;5047386;28;20048;-78
2022/12/01 00:06:01;;;;;;;5.13;4.20;;;7.50;99.90;;;;;;5038886;28;20131;-78
2022/12/01 00:08:27;;;;;;;4.82;3.63;;;7.60;99.90;;;;;;5049444;28;20045;-78
2022/12/01 00:10:54;;;;;;;5.35;4.28;;;7.60;99.90;;;;;;5048913;28;20567;-78
2022/12/01 00:13:21;;;;;;;6.55;4.25;;;7.60;99.90;;;;;;5037155;28;20048;-77
2022/12/01 00:15:48;;;;;;;4.88;4.00;;;7.60;99.90;;;;;;5042773;28;20059;-78
2022/12/01 00:18:15;;;;;;;6.22;4.20;;;7.60;99.90;;;;;;5030621;28;20056;-78
2022/12/01 00:20:42;;;;;;;5.13;4.55;;;7.60;99.90;;;;;;5043120;28;20067;-77
2022/12/01 00:23:08;;;;;;;5.43;4.50;;;7.70;99.90;;;;;;5046649;28;20052;-78
2022/12/01 00:25:35;;;;;;;5.10;3.70;;;7.70;99.90;;;;;;5038415;28;20144;-78
2022/12/01 00:28:02;;;;;;;5.70;4.45;;;7.70;99.90;;;;;;5045662;28;20056;-78
2022/12/01 00:30:29;;;;;;;5.38;4.15;;;7.70;99.90;;;;;;5049446;28;20463;-77
2022/12/01 00:32:55;;;;;;;4.88;4.20;;;7.70;99.90;;;;;;5047260;28;20052;-78
2022/12/01 00:35:22;;;;;;;5.38;4.10;;;7.70;99.90;;;;;;5038560;28;20060;-78
2022/12/01 00:37:49;;;;;;;4.90;4.10;;;7.70;99.90;;;;;;5052238;28;20048;-78
2022/12/01 00:40:16;;;;;;;5.18;4.25;;;7.70;99.90;;;;;;5024488;28;20437;-78
2022/12/01 00:42:42;;;;;;;4.32;3.58;;;7.80;99.90;;;;;;5050212;28;20094;-79
2022/12/01 00:45:10;;;;;;;5.10;3.85;;;7.80;99.90;;;;;;5038008;28;20144;-78
2022/12/01 00:47:36;;;;;;;4.50;3.53;;;7.80;99.90;;;;;;5058596;28;20051;-78
2022/12/01 00:50:04;;;;;;;5.95;4.13;;;7.80;99.90;;;;;;5057449;28;20482;-78
2022/12/01 00:52:30;;;;;;;5.50;4.70;;;7.70;99.90;;;;;;5040425;28;20040;-78
2022/12/01 00:54:57;;;;;;;5.75;4.28;;;7.80;99.90;;;;;;5059864;28;20523;-78
2022/12/01 00:57:24;;;;;;;5.18;3.67;;;7.70;99.90;;;;;;5041664;28;20044;-78
2022/12/01 00:59:50;;;;;;;5.82;4.45;;;7.80;99.90;;;;;;5042579;28;20040;-78
2022/12/01 01:02:17;;;;;;;5.05;3.88;;;7.80;99.90;;;;;;5059656;28;20045;-78
2022/12/01 01:04:44;;;;;;;4.72;4.03;;;7.70;99.90;;;;;;5040445;28;20053;-78
2022/12/01 01:07:11;;;;;;;5.78;4.35;;;7.70;99.90;;;;;;5059872;28;20483;-79
2022/12/01 01:09:38;;;;;;;4.93;3.70;;;7.70;99.90;;;;;;5043090;28;20048;-78
2022/12/01 01:12:05;;;;;;;4.40;3.53;;;7.70;99.90;;;;;;5024954;28;20419;-78
2022/12/01 01:14:31;;;;;;;5.72;4.13;;;7.70;99.90;;;;;;5040281;28;20049;-78
2022/12/01 01:16:58;;;;;;;5.70;3.97;;;7.70;99.90;;;;;;5059624;28;20553;-79
2022/12/01 01:19:25;;;;;;;6.15;4.15;;;7.70;99.90;;;;;;5042576;28;20106;-78
2022/12/01 01:21:52;;;;;;;6.22;4.45;;;7.70;99.90;;;;;;5043185;28;20507;-78
2022/12/01 01:24:19;;;;;;;4.47;3.92;;;7.70;99.90;;;;;;5059863;28;20094;-78
2022/12/01 01:26:45;;;;;;;4.65;3.70;;;7.70;99.90;;;;;;5059076;28;20048;-79
2022/12/01 01:29:12;;;;;;;6.03;4.28;;;7.60;99.90;;;;;;5042000;28;20055;-78
2022/12/01 01:31:39;;;;;;;5.47;4.20;;;7.60;99.90;;;;;;5026135;28;20051;-78
2022/12/01 01:34:05;;;;;;;4.38;3.92;;;7.50;99.90;;;;;;5025540;28;20386;-79
2022/12/01 01:36:32;;;;;;;5.45;4.07;;;7.40;99.90;;;;;;5026732;28;20045;-78
2022/12/01 01:38:59;;;;;;;4.70;3.92;;;7.30;99.90;;;;;;5041117;28;20052;-78
2022/12/01 01:41:26;;;;;;;6.32;3.72;;;7.20;99.90;;;;;;5042905;28;20053;-78
2022/12/01 01:43:55;;;;;;;5.43;3.65;;;7.10;99.90;;;;;;5041895;28;20040;-79
2022/12/01 01:46:30;;;;;;;4.93;3.97;;;7.00;99.90;;;;;;5042899;28;20131;-77
2022/12/01 01:49:10;;;;;;;5.00;3.83;;;7.00;99.90;;;;;;5059294;28;20136;-78
2022/12/01 01:51:44;;;;;;;6.25;4.05;;;6.90;99.90;;;;;;5040429;28;20147;-78
2022/12/01 01:54:30;;;;;;;5.13;3.88;;;6.90;99.90;;;;;;5040164;28;20103;-78
2022/12/01 01:56:57;;;;;;;4.70;3.70;;;6.90;99.90;;;;;;5058616;28;20049;-78
2022/12/01 01:59:28;;;;;;;5.40;3.80;;;6.90;99.90;;;;;;5058855;28;20052;-78
2022/12/01 02:02:06;;;;;;;4.43;3.55;;;6.80;99.90;;;;;;5043224;28;20067;-77
2022/12/01 02:04:34;;;;;;;5.53;4.10;;;6.80;99.90;;;;;;5055804;28;20098;-78
2022/12/01 02:07:01;;;;;;;5.07;4.05;;;6.70;99.90;;;;;;5058816;28;20037;-78
2022/12/01 02:09:28;;;;;;;4.80;3.67;;;6.70;99.90;;;;;;5058897;28;20060;-77
2022/12/01 02:12:00;;;;;;;5.10;3.90;;;6.60;99.90;;;;;;5026239;28;20075;-78
2022/12/01 02:14:39;;;;;;;4.60;3.80;;;6.60;99.90;;;;;;5059777;28;20057;-78
2022/12/01 02:17:25;;;;;;;4.88;3.67;;;6.50;99.90;;;;;;5059297;28;20281;-78
2022/12/01 02:20:13;;;;;;;5.45;3.75;;;6.50;99.90;;;;;;5042462;28;20163;-78
2022/12/01 02:22:58;;;;;;;4.60;3.42;;;6.50;99.90;;;;;;5061279;28;20041;-78
2022/12/01 02:25:36;;;;;;;4.85;3.83;;;6.50;99.90;;;;;;5063059;28;20053;-78
2022/12/01 02:28:48;;;;;;;4.90;3.40;;;6.50;99.90;;;;;;5061178;28;20049;-78
2022/12/01 02:31:16;;;;;;;4.22;3.17;;;6.40;99.90;;;;;;5044840;28;20052;-78
2022/12/01 02:33:44;;;;;;;5.05;3.78;;;6.40;99.90;;;;;;5062464;28;20051;-78
2022/12/01 02:36:11;;;;;;;4.55;3.38;;;6.40;99.90;;;;;;5063707;28;20059;-78
2022/12/01 02:38:39;;;;;;;4.38;3.15;;;6.40;99.90;;;;;;5065785;28;20048;-78
2022/12/01 02:41:15;;;;;;;4.28;3.22;;;6.30;99.90;;;;;;5061100;28;20056;-78
2022/12/01 02:43:44;;;;;;;4.90;3.95;;;6.30;99.90;;;;;;5064653;28;20056;-79
2022/12/01 02:46:16;;;;;;;4.43;3.22;;;6.30;99.90;;;;;;5047721;28;20063;-78
2022/12/01 02:48:45;;;;;;;4.10;3.15;;;6.30;99.90;;;;;;5063151;28;20124;-78
2022/12/01 02:51:21;;;;;;;5.40;3.63;;;6.30;99.90;;;;;;5047488;28;20048;-78
2022/12/01 02:53:48;;;;;;;3.80;3.35;;;6.30;99.90;;;;;;5047118;28;20044;-78
2022/12/01 02:56:18;;;;;;;5.13;3.65;;;6.40;99.90;;;;;;5030472;28;20055;-78
2022/12/01 02:58:45;;;;;;;5.18;3.78;;;6.30;99.90;;;;;;5046954;28;20051;-78
2022/12/01 03:01:33;;;;;;;5.65;3.75;;;6.40;99.90;;;;;;5047352;28;20054;-78
2022/12/01 03:04:03;;;;;;;5.78;3.53;;;6.40;99.90;;;;;;5062723;28;20052;-78
2022/12/01 03:07:04;;;;;;;4.20;3.47;;;6.40;99.90;;;;;;5064313;28;20041;-79
2022/12/01 03:09:48;;;;;;;5.15;3.45;;;6.50;99.90;;;;;;5060830;28;20514;-78
2022/12/01 03:12:43;;;;;;;4.63;3.60;;;6.50;99.90;;;;;;5063806;28;20044;-78
2022/12/01 03:15:27;;;;;;;4.28;3.45;;;6.60;99.90;;;;;;5063822;28;20522;-78
2022/12/01 03:18:16;;;;;;;4.30;3.40;;;6.60;99.90;;;;;;5042544;28;20055;-78
2022/12/01 03:20:57;;;;;;;4.28;3.30;;;6.60;99.90;;;;;;5062436;28;20511;-78
2022/12/01 03:23:26;;;;;;;4.03;2.95;;;6.70;99.90;;;;;;5063496;28;20044;-79
2022/12/01 03:25:53;;;;;;;4.43;3.28;;;6.70;99.90;;;;;;5063350;28;20123;-78
2022/12/01 03:28:22;;;;;;;5.60;3.42;;;6.70;99.90;;;;;;5045567;28;20067;-77
2022/12/01 03:30:52;;;;;;;3.67;2.78;;;6.70;99.90;;;;;;5063429;28;20059;-78
2022/12/01 03:33:29;;;;;;;4.18;3.13;;;6.80;99.90;;;;;;5048940;28;20051;-79
2022/12/01 03:36:21;;;;;;;4.03;3.05;;;6.80;99.90;;;;;;5058746;28;20128;-78
2022/12/01 03:38:54;;;;;;;4.18;2.70;;;6.80;99.90;;;;;;5045184;28;20065;-78
2022/12/01 03:41:24;;;;;;;4.18;2.95;;;6.80;99.90;;;;;;5046067;28;20048;-78
2022/12/01 03:43:53;;;;;;;4.22;3.25;;;6.80;99.90;;;;;;5046304;28;20071;-78
2022/12/01 03:46:41;;;;;;;4.00;3.25;;;6.80;99.90;;;;;;5063014;28;20044;-77
2022/12/01 03:49:08;;;;;;;3.97;3.05;;;6.80;99.90;;;;;;5045170;28;20053;-78
2022/12/01 03:51:54;;;;;;;4.15;2.85;;;6.80;99.90;;;;;;5027764;28;20372;-79
2022/12/01 03:54:27;;;;;;;4.13;2.70;;;6.90;99.90;;;;;;5062517;28;20065;-78
2022/12/01 03:56:59;;;;;;;4.10;3.15;;;6.90;99.90;;;;;;5063843;28;20045;-78
2022/12/01 03:59:26;;;;;;;3.97;3.13;;;6.90;99.90;;;;;;5029274;28;20163;-78
2022/12/01 04:01:53;;;;;;;3.47;3.10;;;6.90;99.90;;;;;;5062459;28;20483;-78
2022/12/01 04:04:20;;;;;;;3.88;3.15;;;6.90;99.90;;;;;;5029022;28;20156;-78
2022/12/01 04:06:47;;;;;;;4.10;3.10;;;6.90;99.90;;;;;;5028654;28;20051;-78
2022/12/01 04:09:14;;;;;;;4.30;3.25;;;6.90;99.90;;;;;;5045737;28;20275;-79
2022/12/01 04:14:26;;;;;;;4.13;2.90;;;6.90;99.90;;;;;;5047811;28;20053;-78
2022/12/01 04:16:53;;;;;;;4.10;2.92;;;6.90;99.90;;;;;;5062322;28;20049;-78
2022/12/01 04:19:20;;;;;;;4.63;2.88;;;6.90;99.90;;;;;;5028997;28;20055;-78
2022/12/01 04:21:47;;;;;;;3.85;2.70;;;7.00;99.90;;;;;;5045258;28;20052;-78
2022/12/01 04:24:13;;;;;;;3.72;3.10;;;7.00;99.90;;;;;;5045535;28;20135;-78
2022/12/01 04:26:41;;;;;;;3.22;2.45;;;7.00;99.90;;;;;;5025494;28;20037;-77
2022/12/01 04:29:09;;;;;;;3.60;2.83;;;7.00;99.90;;;;;;5045268;28;20044;-79
2022/12/01 04:31:36;;;;;;;4.07;3.05;;;7.00;99.90;;;;;;5062427;28;20056;-78
2022/12/01 04:34:03;;;;;;;4.47;3.45;;;7.00;99.90;;;;;;5028379;28;20067;-78
2022/12/01 04:36:31;;;;;;;4.07;2.97;;;7.00;99.90;;;;;;5029033;28;20036;-78
2022/12/01 04:38:58;;;;;;;3.83;2.97;;;6.90;99.90;;;;;;5045240;28;20049;-77
2022/12/01 04:41:24;;;;;;;3.28;2.50;;;6.90;99.90;;;;;;5028605;28;20049;-78
2022/12/01 04:43:53;;;;;;;4.15;2.75;;;6.90;99.90;;;;;;5062585;28;20785;-78
2022/12/01 04:46:20;;;;;;;3.83;2.65;;;6.90;99.90;;;;;;5028899;28;20048;-79
2022/12/01 04:48:47;;;;;;;4.45;3.05;;;6.90;99.90;;;;;;5045469;28;20049;-78
2022/12/01 04:51:14;;;;;;;4.72;2.70;;;6.90;99.90;;;;;;5044905;28;20049;-78
2022/12/01 04:53:41;;;;;;;3.92;3.00;;;6.90;99.90;;;;;;5044949;28;20265;-78
2022/12/01 04:56:08;;;;;;;3.63;2.95;;;6.80;99.90;;;;;;5045700;28;20040;-78
2022/12/01 04:58:36;;;;;;;4.13;3.28;;;6.80;99.90;;;;;;5044563;28;20591;-79
2022/12/01 05:01:04;;;;;;;4.20;3.25;;;6.70;99.90;;;;;;5029187;28;20079;-78
2022/12/01 05:03:31;;;;;;;3.83;2.70;;;6.70;99.90;;;;;;5028032;28;20553;-78
2022/12/01 05:06:12;;;;;;;3.28;2.40;;;6.60;99.90;;;;;;5028690;28;20059;-78
2022/12/01 05:08:39;;;;;;;3.58;2.70;;;6.60;99.90;;;;;;5046231;28;20056;-79
2022/12/01 05:11:07;;;;;;;4.38;2.88;;;6.50;99.90;;;;;;5062639;28;20609;-79
2022/12/01 05:13:35;;;;;;;3.78;2.85;;;6.50;99.90;;;;;;5028486;28;20052;-78
2022/12/01 05:16:06;;;;;;;3.55;2.88;;;6.50;99.90;;;;;;5044469;28;20051;-78
2022/12/01 05:18:33;;;;;;;3.97;2.80;;;6.50;99.90;;;;;;5061107;28;20128;-77
2022/12/01 05:21:00;;;;;;;3.63;2.50;;;6.40;99.90;;;;;;5042012;28;20048;-78
2022/12/01 05:23:27;;;;;;;3.47;2.40;;;6.40;99.90;;;;;;5044796;28;20047;-78
2022/12/01 05:25:54;;;;;;;3.38;2.72;;;6.40;99.90;;;;;;5041165;28;20044;-77
2022/12/01 05:28:22;;;;;;;3.22;2.53;;;6.40;99.90;;;;;;5042429;28;20049;-78
2022/12/01 05:30:49;;;;;;;3.95;2.55;;;6.40;99.90;;;;;;5061328;28;20055;-78
2022/12/01 05:33:16;;;;;;;3.33;2.45;;;6.50;99.90;;;;;;5028215;28;20045;-77
2022/12/01 05:35:43;;;;;;;3.50;2.65;;;6.50;99.90;;;;;;5026027;28;20049;-77
2022/12/01 05:38:09;;;;;;;3.70;2.55;;;6.50;99.90;;;;;;5041588;28;20068;-78
2022/12/01 05:40:36;;;;;;;3.75;2.67;;;6.50;99.90;;;;;;5051474;28;20045;-77
2022/12/01 05:43:03;;;;;;;3.22;2.55;;;6.50;99.90;;;;;;5035431;28;20099;-78
2022/12/01 05:45:30;;;;;;;3.50;2.70;;;6.50;99.90;;;;;;5055300;28;20040;-80
2022/12/01 05:47:58;;;;;;;4.43;3.15;;;6.50;99.90;;;;;;5066996;28;20070;-79
2022/12/01 05:50:26;;;;;;;3.45;2.58;;;6.40;99.90;;;;;;5040322;28;20134;-80
2022/12/01 05:52:53;;;;;;;3.92;2.75;;;6.40;99.90;;;;;;5037098;28;20847;-80
2022/12/01 05:55:21;;;;;;;3.38;2.40;;;6.40;99.90;;;;;;5059886;28;20072;-79
2022/12/01 05:57:48;;;;;;;3.53;2.20;;;6.40;99.90;;;;;;5055708;28;20059;-79
2022/12/01 06:00:15;;;;;;;4.40;2.72;;;6.40;99.90;;;;;;5048078;28;20071;-76
2022/12/01 06:02:42;;;;;;;3.65;2.20;;;6.40;99.90;;;;;;5062261;28;20044;-79
2022/12/01 06:05:09;;;;;;;3.60;2.00;;;6.40;99.90;;;;;;5056977;28;20071;-80
2022/12/01 06:07:38;;;;;;;4.53;3.25;;;6.40;99.90;;;;;;5059720;28;20537;-78
2022/12/01 06:10:07;;;;;;;3.20;2.42;;;6.30;99.90;;;;;;5042735;28;20045;-78
2022/12/01 06:12:34;;;;;;;3.67;2.40;;;6.30;99.90;;;;;;5036707;28;20052;-80
2022/12/01 06:15:01;;;;;;;2.83;2.22;;;6.30;99.90;;;;;;5056678;28;20455;-78
2022/12/01 06:17:28;;;;;;;3.70;2.65;;;6.30;99.90;;;;;;5038095;28;20429;-78
2022/12/01 06:19:54;;;;;;;3.90;3.13;;;6.20;99.90;;;;;;5054172;28;21166;-77
2022/12/01 06:22:21;;;;;;;3.85;2.30;;;6.20;99.90;;;;;;5057103;28;20162;-78
2022/12/01 06:24:48;;;;;;;3.38;2.47;;;6.20;99.90;;;;;;5061080;28;20110;-78
2022/12/01 06:27:15;;;;;;;2.47;1.75;;;6.20;99.90;;;;;;5078267;28;20048;-77
2022/12/01 06:29:41;;;;;;;3.63;2.85;;;6.20;99.90;;;;;;5042831;28;20788;-78
2022/12/01 06:32:08;;;;;;;3.30;2.35;;;6.20;99.90;;;;;;5060776;28;20052;-78
2022/12/01 06:34:35;;;;;;;3.22;2.50;;;6.20;99.90;;;;;;5054140;28;20044;-78
2022/12/01 06:37:02;;;;;;;3.35;2.40;;;6.20;99.90;;;;;;5022715;28;20053;-77
2022/12/01 06:39:29;;;;;;;3.33;2.67;;;6.20;99.90;;;;;;5043740;28;20070;-77
2022/12/01 06:41:55;;;;;;;3.42;2.30;;;6.10;99.90;;;;;;5019037;28;20056;-78
2022/12/01 06:44:22;;;;;;;2.65;1.88;;;6.10;99.90;;;;;;5061837;28;20044;-77
2022/12/01 06:46:52;;;;;;;2.90;2.10;;;6.10;99.90;;;;;;5046315;28;20044;-77
2022/12/01 06:49:19;;;;;;;2.80;1.95;;;6.00;99.90;;;;;;5042348;28;20063;-76
2022/12/01 06:51:45;;;;;;;3.08;2.30;;;6.00;99.90;;;;;;5057041;28;20120;-78
2022/12/01 06:54:13;;;;;;;2.95;2.05;;;5.90;99.90;;;;;;5039177;28;20071;-77
2022/12/01 06:56:41;;;;;;;3.22;2.10;;;5.90;99.90;;;;;;5042097;28;20072;-77
2022/12/01 06:59:08;;;;;;;3.35;2.47;;;5.80;99.90;;;;;;5049573;28;20341;-77
2022/12/01 07:01:35;;;;;;;3.35;2.33;;;5.70;99.90;;;;;;5019247;28;20057;-77
2022/12/01 07:04:02;;;;;;;2.70;2.22;;;5.60;99.90;;;;;;5042376;28;20048;-76
2022/12/01 07:06:29;;;;;;;3.00;2.25;;;5.60;99.90;;;;;;5060718;28;20163;-77
2022/12/01 07:08:56;;;;;;;3.35;2.15;;;5.60;99.90;;;;;;5058360;28;20527;-77
2022/12/01 07:11:23;;;;;;;3.10;2.28;;;5.50;99.90;;;;;;5058753;28;20052;-78
2022/12/01 07:13:53;;;;;;;3.40;2.90;;;5.50;99.90;;;;;;5038400;28;20063;-77
2022/12/01 07:16:21;;;;;;;3.65;2.72;;;5.40;99.90;;;;;;5068920;28;20075;-77
2022/12/01 07:18:47;;;;;;;3.17;2.42;;;5.40;99.90;;;;;;5080529;28;20047;-77
2022/12/01 07:21:14;;;;;;;2.72;2.25;;;5.40;99.90;;;;;;5067797;28;20387;-77
2022/12/01 07:23:41;;;;;;;2.47;2.03;;;5.40;99.90;;;;;;5058596;28;20135;-79
2022/12/01 07:26:13;;;;;;;2.72;2.00;;;5.30;99.90;;;;;;5027035;28;20041;-78
2022/12/01 07:28:40;;;;;;;2.90;2.10;;;5.30;99.90;;;;;;5044423;28;20048;-79
2022/12/01 07:31:07;;;;;;;3.30;2.38;;;5.30;99.90;;;;;;5061431;28;20049;-78
2022/12/01 07:33:34;;;;;;;3.55;2.53;;;5.30;99.90;;;;;;5044632;28;20056;-78
2022/12/01 07:36:01;;;;;;;4.55;2.92;;;5.30;99.90;;;;;;5028717;28;20083;-78
2022/12/01 07:38:29;;;;;;;3.03;2.42;;;5.30;99.90;;;;;;5061087;28;20910;-79
2022/12/01 07:41:04;;;;;;;3.22;2.42;;;5.30;99.90;;;;;;5045144;28;20053;-78
2022/12/01 07:43:31;;;;;;;2.95;2.05;;;5.30;99.90;;;;;;5060225;28;20071;-78
2022/12/01 07:46:04;;;;;;;3.38;2.33;;;5.30;99.90;;;;;;5044995;28;20102;-77
2022/12/01 07:48:31;;;;;;;3.22;2.20;;;5.30;99.90;;;;;;5060348;28;20159;-78
2022/12/01 07:50:58;;;;;;;3.33;2.25;;;5.30;99.90;;;;;;5060446;28;20468;-78
2022/12/01 07:53:24;;;;;;;2.80;2.20;;;5.40;99.90;;;;;;5027773;28;20274;-78
2022/12/01 07:55:51;;;;;;;2.55;2.03;;;5.40;99.90;;;;;;5061007;28;20432;-78
2022/12/01 07:58:18;;;;;;;2.70;2.15;;;5.40;99.90;;;;;;5059480;28;20454;-78
2022/12/01 08:00:45;;;;;;;2.50;1.90;;;5.40;99.90;;;;;;5062071;28;20090;-78
2022/12/01 08:03:12;;;;;;;2.60;1.88;;;5.40;99.90;;;;;;5043355;28;20636;-78
2022/12/01 08:05:39;;;;;;;2.72;1.80;;;5.40;99.90;;;;;;5044344;28;20498;-78
2022/12/01 08:08:06;;;;;;;2.88;2.47;;;5.40;99.90;;;;;;5027311;28;20219;-78
2022/12/01 08:10:33;;;;;;;3.55;2.38;;;5.40;99.90;;;;;;5062728;28;20048;-78
2022/12/01 08:13:00;;;;;;;3.65;2.30;;;5.50;99.90;;;;;;5058845;28;20041;-78
2022/12/01 08:15:27;;;;;;;2.83;1.90;;;5.50;99.90;;;;;;5044277;28;20056;-79
2022/12/01 08:17:54;;;;;;;3.08;2.08;;;5.50;99.90;;;;;;5059389;28;20124;-78
2022/12/01 08:20:20;;;;;;;2.92;2.10;;;5.50;99.90;;;;;;5061264;28;20464;-78
2022/12/01 08:22:49;;;;;;;3.55;2.60;;;5.50;99.90;;;;;;5059730;28;20127;-78
2022/12/01 08:25:16;;;;;;;3.05;2.17;;;5.50;99.90;;;;;;5060786;28;20415;-78
2022/12/01 08:27:43;;;;;;;2.80;2.05;;;5.60;99.90;;;;;;5025824;28;20473;-78
2022/12/01 08:30:10;;;;;;;3.08;2.38;;;5.60;99.90;;;;;;5043926;28;20096;-78
2022/12/01 08:32:37;;;;;;;3.38;2.20;;;5.70;99.90;;;;;;5059742;28;20075;-78
2022/12/01 08:35:04;;;;;;;2.60;2.08;;;5.70;99.90;;;;;;5027430;28;20376;-78
2022/12/01 08:37:31;;;;;;;2.90;2.25;;;5.80;99.90;;;;;;5061335;28;20064;-78
2022/12/01 08:39:57;;;;;;;3.08;2.38;;;5.90;99.90;;;;;;5060522;28;20063;-78
2022/12/01 08:42:24;;;;;;;2.95;2.25;;;6.00;99.90;;;;;;5042908;28;20045;-78
2022/12/01 08:44:51;;;;;;;2.92;2.30;;;6.10;99.90;;;;;;5042730;28;20068;-77
2022/12/01 08:47:17;;;;;;;3.40;2.35;;;6.20;99.90;;;;;;5061807;28;20071;-78
2022/12/01 08:49:45;;;;;;;2.78;1.92;;;6.30;99.90;;;;;;5060865;28;20475;-78
2022/12/01 08:52:12;;;;;;;3.83;2.47;;;6.30;99.90;;;;;;5043704;28;20460;-78
2022/12/01 08:54:39;;;;;;;3.03;2.22;;;6.40;99.90;;;;;;5026482;28;20060;-78
2022/12/01 08:57:06;;;;;;;2.97;1.98;;;6.50;99.90;;;;;;5026939;28;20135;-78
2022/12/01 08:59:32;;;;;;;4.03;2.65;;;6.60;99.90;;;;;;5059501;28;20051;-78
2022/12/01 09:01:59;;;;;;;3.13;2.60;;;6.60;99.90;;;;;;5043837;28;20553;-78
2022/12/01 09:04:32;;;;;;;3.72;2.55;;;6.70;99.90;;;;;;5057950;28;20454;-78
2022/12/01 09:06:59;;;;;;;5.75;3.95;;;6.80;99.90;;;;;;5061332;28;20048;-77
2022/12/01 09:09:27;;;;;;;4.70;3.70;;;6.90;99.90;;;;;;5061255;28;20144;-79
2022/12/01 09:11:54;;;;;;;5.60;3.95;;;6.90;99.90;;;;;;5043098;28;20550;-78
2022/12/01 09:14:21;;;;;;;4.57;3.22;;;6.90;99.90;;;;;;5026303;28;20052;-78
2022/12/01 09:16:48;;;;;;;5.13;3.90;;;6.90;99.90;;;;;;5059810;28;20076;-78
2022/12/01 09:19:17;;;;;;;3.95;3.22;;;7.00;99.90;;;;;;5058791;28;20456;-78
2022/12/01 09:21:50;;;;;;;4.28;3.53;;;7.00;99.90;;;;;;5044387;28;20082;-78
2022/12/01 09:24:17;;;;;;;5.13;4.10;;;6.90;99.90;;;;;;5042983;28;20079;-78
2022/12/01 09:26:43;;;;;;;4.78;3.97;;;6.90;99.90;;;;;;5059432;28;20052;-78
2022/12/01 09:29:12;;;;;;;5.22;4.18;;;6.80;99.90;;;;;;5058624;28;20049;-78
2022/12/01 09:31:39;;;;;;;6.38;3.80;;;6.80;99.90;;;;;;5063164;28;20422;-77
2022/12/01 09:34:07;;;;;;;5.22;4.00;;;6.90;99.90;;;;;;5072448;28;20052;-79
2022/12/01 09:36:34;;;;;;;6.55;3.78;;;6.80;99.90;;;;;;5060764;28;20067;-79
2022/12/01 09:39:01;;;;;;;4.82;3.60;;;6.80;99.90;;;;;;5065433;28;20058;-80
2022/12/01 09:41:41;;;;;;;4.45;3.67;;;6.80;99.90;;;;;;5061465;28;20131;-82
2022/12/01 09:44:16;;;;;;;4.05;3.03;;;6.80;99.90;;;;;;5044985;28;20041;-83
2022/12/01 09:46:45;;;;;;;3.90;3.30;;;6.90;99.90;;;;;;5073170;28;20139;-83
2022/12/01 09:49:41;;;;;;;3.72;3.13;;;6.90;99.90;;;;;;5051791;28;20144;-84
2022/12/01 09:52:10;;;;;;;3.78;3.05;;;6.90;99.90;;;;;;5053541;28;20059;-82
2022/12/01 09:54:38;;;;;;;4.72;3.55;;;7.00;99.90;;;;;;5031445;28;20049;-82
2022/12/01 09:57:04;;;;;;;4.18;3.10;;;7.10;99.90;;;;;;5066242;28;20052;-82
2022/12/01 09:59:34;;;;;;;4.45;3.65;;;7.10;99.90;;;;;;5061858;28;20139;-82
2022/12/01 10:02:02;;;;;;;3.92;3.13;;;7.10;99.90;;;;;;5046784;28;20059;-82
2022/12/01 10:04:43;;;;;;;4.28;3.72;;;7.20;99.90;;;;;;5029219;28;20044;-82
2022/12/01 10:07:13;;;;;;;4.97;4.20;;;7.30;99.90;;;;;;5046486;28;20052;-82
2022/12/01 10:09:57;;;;;;;5.20;3.97;;;7.30;99.90;;;;;;5062766;28;20052;-81
2022/12/01 10:12:26;;;;;;;7.45;4.97;;;7.40;99.90;;;;;;5062038;28;20320;-82
2022/12/01 10:15:22;;;;;;;7.38;5.38;;;7.40;99.90;;;;;;5046323;28;20063;-82
2022/12/01 10:18:01;;;;;;;5.85;4.53;;;7.40;99.90;;;;;;5046564;28;20075;-82
2022/12/01 10:20:33;;;;;;;5.30;4.50;;;7.50;99.90;;;;;;5062213;28;20044;-81
2022/12/01 10:23:13;;;;;;;5.57;4.97;;;7.60;99.90;;;;;;5028829;28;20235;-83
2022/12/01 10:25:58;;;;;;;6.40;4.38;;;7.60;99.90;;;;;;5062496;28;20431;-82
2022/12/01 10:28:57;;;;;;;6.40;5.05;;;7.60;99.90;;;;;;5045515;28;20056;-82
2022/12/01 10:31:48;;;;;;;7.07;5.85;;;7.70;99.90;;;;;;5063018;28;20163;-82
2022/12/01 10:34:30;;;;;;;7.07;6.38;;;7.80;99.90;;;;;;5030786;28;20044;-82
2022/12/01 10:36:57;;;;;;;7.20;6.45;;;8.00;99.90;;;;;;5030048;28;20048;-82
2022/12/01 10:39:27;;;;;;;8.32;6.93;;;8.20;99.90;;;;;;5045954;28;20514;-82
2022/12/01 10:41:58;;;;;;;7.30;6.35;;;8.30;99.90;;;;;;5061703;28;20056;-82
2022/12/01 10:44:25;;;;;;;8.80;7.25;;;8.40;99.90;;;;;;5027577;28;20116;-82
2022/12/01 10:46:53;;;;;;;9.23;7.15;;;8.50;99.90;;;;;;5062509;28;20059;-82
2022/12/01 10:49:22;;;;;;;8.48;7.57;;;8.60;99.90;;;;;;5028135;28;20155;-82
2022/12/01 10:51:53;;;;;;;9.80;7.43;;;8.70;99.90;;;;;;5045710;28;20075;-82
2022/12/01 10:54:22;;;;;;;8.18;7.03;;;8.80;99.90;;;;;;5045315;28;20414;-83
2022/12/01 10:56:53;;;;;;;9.23;7.15;;;8.70;99.90;;;;;;5045872;28;20063;-83
2022/12/01 10:59:23;;;;;;;7.10;6.38;;;8.60;99.90;;;;;;5061812;28;20060;-83
2022/12/01 11:01:50;;;;;;;7.10;6.20;;;8.60;99.90;;;;;;5061697;28;20131;-82
2022/12/01 11:04:33;;;;;;;6.70;5.43;;;8.70;99.90;;;;;;5044516;28;20053;-82
2022/12/01 11:07:01;;;;;;;6.35;5.47;;;8.70;99.90;;;;;;5061935;28;20044;-82
2022/12/01 11:09:28;;;;;;;6.30;5.28;;;8.70;99.90;;;;;;5061838;28;20291;-83
2022/12/01 11:12:00;;;;;;;7.53;6.32;;;8.70;99.90;;;;;;5028558;28;20048;-83
2022/12/01 11:14:42;;;;;;;6.43;5.00;;;8.80;99.90;;;;;;5028020;28;20060;-82
2022/12/01 11:17:24;;;;;;;6.78;5.55;;;8.80;99.90;;;;;;5045193;28;20439;-83
2022/12/01 11:19:50;;;;;;;6.32;4.55;;;8.90;99.90;;;;;;5060765;28;20476;-82
2022/12/01 11:22:30;;;;;;;6.28;5.20;;;8.90;99.90;;;;;;5060930;28;20052;-83
2022/12/01 11:24:59;;;;;;;5.05;4.13;;;8.80;99.90;;;;;;5062132;28;20041;-83
2022/12/01 11:27:46;;;;;;;6.35;4.93;;;8.90;99.90;;;;;;5044506;28;20084;-83
2022/12/01 11:30:28;;;;;;;6.80;5.47;;;8.90;99.90;;;;;;5061727;28;20124;-82
2022/12/01 11:32:59;;;;;;;5.00;4.47;;;8.90;99.90;;;;;;5044646;28;20403;-83
2022/12/01 11:35:31;;;;;;;4.78;4.20;;;8.90;99.90;;;;;;5028732;28;20044;-83
2022/12/01 11:37:59;;;;;;;5.85;4.03;;;9.00;99.90;;;;;;5027853;28;20552;-81
2022/12/01 11:40:53;;;;;;;5.85;5.22;;;9.10;99.90;;;;;;5047965;28;20052;-81
2022/12/01 11:43:25;;;;;;;5.18;4.68;;;9.10;99.90;;;;;;5044518;28;20586;-81
2022/12/01 11:45:53;;;;;;;6.43;5.25;;;9.20;99.90;;;;;;5060723;28;20527;-81
2022/12/01 11:48:24;;;;;;;5.82;4.53;;;9.20;99.90;;;;;;5040833;28;20113;-80
2022/12/01 11:51:17;;;;;;;5.38;4.43;;;9.20;99.90;;;;;;5056939;28;20131;-80
2022/12/01 11:53:44;;;;;;;5.22;4.65;;;9.30;99.90;;;;;;5050392;28;20053;-81
2022/12/01 11:56:27;;;;;;;6.00;4.68;;;9.30;99.90;;;;;;5040779;28;20063;-81
2022/12/01 11:59:00;;;;;;;6.65;5.05;;;9.40;99.90;;;;;;5043907;28;20494;-81
2022/12/01 12:02:04;;;;;;;5.35;4.47;;;9.50;99.90;;;;;;5051867;28;20098;-80
2022/12/01 12:04:43;;;;;;;5.28;4.60;;;9.60;99.90;;;;;;5064126;28;20118;-80
2022/12/01 12:07:22;;;;;;;4.60;3.70;;;9.80;99.90;;;;;;5069527;28;20048;-81
2022/12/01 12:10:24;;;;;;;5.05;4.53;;;10.00;99.90;;;;;;5058328;28;20567;-80
2022/12/01 12:13:00;;;;;;;3.97;3.58;;;10.20;99.90;;;;;;5054304;28;20693;-81
2022/12/01 12:15:58;;;;;;;4.65;3.92;;;10.30;99.90;;;;;;5057627;28;20053;-80
2022/12/01 12:18:35;;;;;;;3.42;2.92;;;10.30;99.90;;;;;;5056538;28;20060;-81
2022/12/01 12:21:07;;;;;;;3.70;3.00;;;10.50;99.90;;;;;;5057491;28;20416;-80
2022/12/01 12:23:40;;;;;;;3.47;2.97;;;10.50;99.90;;;;;;5056214;28;20067;-80
2022/12/01 12:26:34;;;;;;;3.47;2.85;;;10.70;99.90;;;;;;5057397;28;20049;-82
2022/12/01 12:29:19;;;;;;;2.60;2.40;;;11.00;99.90;;;;;;5042372;28;20067;-81
2022/12/01 12:32:04;;;;;;;3.00;2.50;;;11.30;99.90;;;;;;5057389;28;20097;-81
2022/12/01 12:34:34;;;;;;;2.63;2.10;;;11.50;99.90;;;;;;5056130;28;20048;-81
2022/12/01 12:37:21;;;;;;;4.10;2.63;;;11.80;99.90;;;;;;5058290;28;20492;-81
2022/12/01 12:40:14;;;;;;;3.67;3.00;;;12.00;99.90;;;;;;5056433;28;20044;-82
2022/12/01 12:43:09;;;;;;;4.97;3.03;;;12.00;99.90;;;;;;5039807;28;20053;-81
2022/12/01 12:46:04;;;;;;;3.58;2.90;;;12.10;99.90;;;;;;5055393;28;20471;-80
2022/12/01 12:48:56;;;;;;;3.15;2.50;;;12.30;99.90;;;;;;5037305;28;20048;-80
2022/12/01 12:51:46;;;;;;;3.25;2.78;;;12.50;99.90;;;;;;5049398;28;20262;-81
2022/12/01 12:54:19;;;;;;;3.55;2.90;;;12.40;99.90;;;;;;5055732;28;20152;-80
2022/12/01 12:56:49;;;;;;;3.85;2.97;;;12.10;99.90;;;;;;5056605;28;20494;-81
2022/12/01 12:59:24;;;;;;;3.78;3.03;;;12.00;99.90;;;;;;5039436;28;20188;-80
2022/12/01 13:01:57;;;;;;;4.03;3.45;;;11.80;99.90;;;;;;5023266;28;20508;-80
2022/12/01 13:04:30;;;;;;;3.40;2.95;;;11.60;99.90;;;;;;5038976;28;20052;-80
2022/12/01 13:07:36;;;;;;;3.38;2.80;;;11.50;99.90;;;;;;5039436;28;20056;-80
2022/12/01 13:10:35;;;;;;;4.32;3.47;;;11.40;99.90;;;;;;5025649;28;20060;-80
2022/12/01 13:13:08;;;;;;;4.10;3.30;;;11.30;99.90;;;;;;5050142;28;20072;-80
2022/12/01 13:15:35;;;;;;;3.80;3.35;;;11.30;99.90;;;;;;5039388;28;20052;-80
2022/12/01 13:18:30;;;;;;;3.28;2.67;;;11.20;99.90;;;;;;5038880;28;20105;-79
2022/12/01 13:20:57;;;;;;;2.42;2.20;;;11.30;99.90;;;;;;5041402;28;20360;-80